Mehmet Bey — 9HUD6 — position and weather

sailwx.info

Track history (hours):
 
Tides and Currents Weather Stations Pressure Air Temp Water Temp Dewpoint Dewpoint Depression Visibility Wind Speed Wind Dir Waves Ship Positions

Mehmet Bey

Last reported at 2015-Sep-02 15:07 UTC. Time now 2015-Sep-05 16:23 UTC.
Position N 35°50' W 000°36'.

Length 131 m; draft 8 m.

Type: Cargo ship. MMSI: 248864000.

Date/timePositionNaut miles runAvg speedWind from/ knotsBaromVisibWave heightAir tempDewpointWater temp
2015-Sep-02 15:07N 35°50' W 000°36'5 8.2
2015-Sep-02 14:33N 35°54' W 000°35'9 7.8
2015-Sep-02 13:24N 36°02' W 000°29'49 7.1
2015-Sep-02 06:33N 36°27' E 000°23'8 6.8
2015-Sep-02 05:26N 36°31' E 000°31'241 8.0
2015-Aug-31 23:33N 37°19' E 005°26'190 8.2
2015-Aug-31 00:29N 37°41' E 009°24'9 7.8
2015-Aug-30 23:19N 37°41' E 009°35'6 7.8
2015-Aug-30 22:33N 37°40' E 009°43'9 7.8
2015-Aug-30 21:27N 37°39' E 009°53'7 7.5
2015-Aug-30 20:33N 37°39' E 010°02'8 7.6
2015-Aug-30 19:32N 37°39' E 010°12'10 7.9
2015-Aug-30 18:17N 37°39' E 010°24'6 8.0
2015-Aug-30 17:33N 37°39' E 010°31'1 1.1
2015-Aug-30 16:33N 37°38' E 010°32'1 1.1
2015-Aug-30 15:33N 37°37' E 010°33'6 6.4
2015-Aug-30 14:33N 37°35' E 010°41'7 7.5
2015-Aug-30 13:33N 37°33' E 010°50'7 7.2
2015-Aug-30 12:33N 37°31' E 010°58'7 7.2
2015-Aug-30 11:33N 37°29' E 011°07'11 8.0
2015-Aug-30 10:08N 37°24' E 011°20'21 8.2
2015-Aug-30 07:33N 37°18' E 011°45'8 8.0
2015-Aug-30 06:33N 37°16' E 011°55'8 7.8
2015-Aug-30 05:30N 37°13' E 012°05'8 8.4
2015-Aug-30 04:31N 37°10' E 012°15'8 8.3
2015-Aug-30 03:33N 37°06' E 012°23'24 8.1
2015-Aug-30 00:33N 36°55' E 012°50'8 7.8
2015-Aug-29 23:33N 36°51' E 012°59'8 7.6
2015-Aug-29 22:28N 36°47' E 013°08'15 7.3
2015-Aug-29 20:21N 36°40' E 013°25'38 7.8
2015-Aug-29 15:30N 36°22' E 014°06'8 8.4
2015-Aug-29 14:33N 36°19' E 014°15'8 8.6
2015-Aug-29 13:33N 36°15' E 014°25'9 8.7
2015-Aug-29 12:33N 36°11' E 014°34'7 7.2
2015-Aug-29 11:33N 36°06' E 014°41'8 8.0
2015-Aug-29 10:33N 35°58' E 014°39'9 7.3
2015-Aug-29 09:22N 35°50' E 014°36'0 0.1
2015-Aug-29 06:08N 35°50' E 014°36'0 0.0
2015-Aug-29 04:32N 35°50' E 014°36'0 0.0
2015-Aug-29 03:32N 35°50' E 014°36'0 0.0
2015-Aug-29 02:20N 35°50' E 014°36'0 0.0
2015-Aug-29 00:26N 35°50' E 014°36'0 0.0
2015-Aug-28 21:14N 35°50' E 014°36'0 0.0
2015-Aug-28 19:32N 35°50' E 014°36'0 0.0
2015-Aug-28 18:29N 35°50' E 014°36'0 0.1
2015-Aug-28 17:26N 35°50' E 014°36'0 0.0
2015-Aug-28 16:32N 35°50' E 014°36'0 0.0
2015-Aug-28 15:32N 35°50' E 014°36'0 0.0
2015-Aug-28 14:32N 35°50' E 014°36'0 0.0
2015-Aug-28 12:32N 35°50' E 014°36'0 0.0
2015-Aug-28 11:29N 35°50' E 014°36'0 0.0
2015-Aug-28 10:32N 35°50' E 014°36'0 0.0
2015-Aug-28 09:26N 35°50' E 014°36'0 0.0
2015-Aug-28 08:26N 35°50' E 014°36'0 0.0
2015-Aug-28 07:32N 35°50' E 014°36'0 0.0
2015-Aug-28 06:32N 35°50' E 014°36'0 0.0
2015-Aug-28 05:26N 35°50' E 014°36'0 0.0
2015-Aug-28 04:26N 35°50' E 014°36'0 0.0
2015-Aug-28 03:14N 35°50' E 014°36'0 0.0
2015-Aug-28 02:32N 35°50' E 014°36'0 0.0
2015-Aug-28 01:32N 35°50' E 014°36'0 0.0
2015-Aug-28 00:32N 35°50' E 014°36'0 0.0
2015-Aug-27 20:29N 35°50' E 014°36'0 0.0
2015-Aug-27 18:17N 35°50' E 014°36'0 0.0
2015-Aug-27 15:26N 35°50' E 014°36'0 0.0
2015-Aug-27 14:29N 35°50' E 014°36'0 0.0
2015-Aug-27 13:32N 35°50' E 014°36'0 0.0
2015-Aug-27 12:23N 35°50' E 014°36'0 0.0
2015-Aug-27 11:32N 35°50' E 014°36'0 0.0
2015-Aug-27 10:32N 35°50' E 014°36'0 0.0
2015-Aug-27 09:32N 35°50' E 014°36'0 0.0
2015-Aug-27 08:26N 35°50' E 014°36'0 0.0
2015-Aug-27 07:32N 35°50' E 014°36'0 0.0
2015-Aug-27 06:32N 35°50' E 014°36'0 0.0
2015-Aug-27 05:32N 35°50' E 014°36'0 0.0
2015-Aug-27 04:14N 35°50' E 014°36'0 0.0
2015-Aug-27 03:32N 35°50' E 014°36'0 0.0
2015-Aug-27 02:17N 35°50' E 014°36'0 0.0
2015-Aug-27 01:32N 35°50' E 014°36'0 0.0
2015-Aug-27 00:29N 35°50' E 014°36'0 0.0
2015-Aug-26 23:26N 35°50' E 014°36'0 0.0
2015-Aug-26 22:32N 35°50' E 014°36'0 0.0
2015-Aug-26 20:08N 35°50' E 014°36'0 0.0
2015-Aug-26 19:32N 35°50' E 014°36'0 0.0
2015-Aug-26 18:32N 35°50' E 014°36'0 0.0
2015-Aug-26 17:32N 35°50' E 014°36'0 0.0
2015-Aug-26 16:32N 35°50' E 014°36'0 0.1
2015-Aug-26 15:23N 35°50' E 014°36'3 3.1
2015-Aug-26 14:34N 35°52' E 014°37'8 7.6
2015-Aug-26 13:33N 35°60' E 014°39'8 7.9
2015-Aug-26 12:34N 36°07' E 014°41'8 7.7
2015-Aug-26 11:33N 36°14' E 014°36'7 7.0
2015-Aug-26 10:33N 36°17' E 014°28'8 7.8
2015-Aug-26 09:33N 36°19' E 014°19'8 7.5
2015-Aug-26 08:33N 36°23' E 014°11'8 7.8
2015-Aug-26 07:33N 36°28' E 014°04'5 4.9
2015-Aug-26 06:34N 36°31' E 013°59'0 0.4
2015-Aug-26 05:34N 36°31' E 013°59'0 0.4
2015-Aug-26 04:33N 36°32' E 013°59'0 0.3
2015-Aug-26 03:34N 36°32' E 013°58'0 0.4
2015-Aug-26 02:33N 36°32' E 013°58'0 0.3
2015-Aug-26 01:33N 36°33' E 013°58'0 0.4
2015-Aug-26 00:33N 36°33' E 013°58'0 0.4
2015-Aug-25 23:34N 36°33' E 013°57'0 0.4
2015-Aug-25 22:32N 36°34' E 013°57'0 0.5
2015-Aug-25 21:33N 36°34' E 013°57'0 0.4
2015-Aug-25 20:33N 36°34' E 013°57'0 0.4
2015-Aug-25 19:34N 36°35' E 013°56'0 0.4
2015-Aug-25 18:34N 36°35' E 013°56'0 0.5
2015-Aug-25 17:34N 36°36' E 013°56'1 0.8
2015-Aug-25 16:30N 36°36' E 013°56'0 0.2
2015-Aug-25 15:33N 36°37' E 013°56'0 0.3
2015-Aug-25 14:33N 36°37' E 013°56'0 0.2
2015-Aug-25 13:33N 36°37' E 013°56'0 0.1
2015-Aug-25 12:33N 36°37' E 013°56'0 0.1
2015-Aug-25 11:33N 36°37' E 013°56'0 0.1
2015-Aug-25 10:33N 36°37' E 013°56'0 0.1
2015-Aug-25 09:33N 36°37' E 013°56'0 0.4
2015-Aug-25 08:34N 36°37' E 013°56'0 0.1
2015-Aug-25 07:33N 36°37' E 013°56'0 0.1
2015-Aug-25 06:33N 36°37' E 013°56'0 0.2
2015-Aug-25 05:34N 36°37' E 013°56'0 0.2
2015-Aug-25 04:34N 36°37' E 013°56'0 0.1
2015-Aug-25 03:33N 36°37' E 013°56'1 1.5
2015-Aug-25 02:33N 36°37' E 013°58'7 7.1
2015-Aug-25 01:33N 36°35' E 014°06'7 7.3
2015-Aug-25 00:34N 36°32' E 014°14'6 6.1
2015-Aug-24 23:34N 36°30' E 014°21'8 7.7
2015-Aug-24 22:34N 36°27' E 014°30'8 7.7
2015-Aug-24 21:33N 36°27' E 014°40'8 7.5
2015-Aug-24 20:28N 36°27' E 014°50'7 7.8
2015-Aug-24 19:33N 36°26' E 014°59'8 7.6
2015-Aug-24 18:30N 36°27' E 015°09'7 7.8
2015-Aug-24 17:34N 36°26' E 015°18'9 7.5
2015-Aug-24 16:21N 36°26' E 015°29'8 7.7
2015-Aug-24 15:18N 36°26' E 015°39'6 7.2
2015-Aug-24 14:29N 36°26' E 015°46'2 0.6
2015-Aug-24 10:30N 36°26' E 015°49'0 0.2
2015-Aug-24 09:29N 36°26' E 015°49'5 5.6
2015-Aug-24 08:32N 36°26' E 015°56'  
Track history (hours):
 
Tides and Currents Weather Stations Pressure Air Temp Water Temp Dewpoint Dewpoint Depression Visibility Wind Speed Wind Dir Waves Ship Positions

Mehmet Bey

Last reported at 2015-Sep-02 15:07 UTC. Time now 2015-Sep-05 16:23 UTC.
Position N 35°50' W 000°36'.

Length 131 m; draft 8 m.

Type: Cargo ship. MMSI: 248864000.

Date/timePositionNaut miles runAvg speedWind from/ knotsBaromVisibWave heightAir tempDewpointWater temp
2015-Sep-02 15:07N 35°50' W 000°36'5 8.2
2015-Sep-02 14:33N 35°54' W 000°35'9 7.8
2015-Sep-02 13:24N 36°02' W 000°29'49 7.1
2015-Sep-02 06:33N 36°27' E 000°23'8 6.8
2015-Sep-02 05:26N 36°31' E 000°31'241 8.0
2015-Aug-31 23:33N 37°19' E 005°26'190 8.2
2015-Aug-31 00:29N 37°41' E 009°24'9 7.8
2015-Aug-30 23:19N 37°41' E 009°35'6 7.8
2015-Aug-30 22:33N 37°40' E 009°43'9 7.8
2015-Aug-30 21:27N 37°39' E 009°53'7 7.5
2015-Aug-30 20:33N 37°39' E 010°02'8 7.6
2015-Aug-30 19:32N 37°39' E 010°12'10 7.9
2015-Aug-30 18:17N 37°39' E 010°24'6 8.0
2015-Aug-30 17:33N 37°39' E 010°31'1 1.1
2015-Aug-30 16:33N 37°38' E 010°32'1 1.1
2015-Aug-30 15:33N 37°37' E 010°33'6 6.4
2015-Aug-30 14:33N 37°35' E 010°41'7 7.5
2015-Aug-30 13:33N 37°33' E 010°50'7 7.2
2015-Aug-30 12:33N 37°31' E 010°58'7 7.2
2015-Aug-30 11:33N 37°29' E 011°07'11 8.0
2015-Aug-30 10:08N 37°24' E 011°20'21 8.2
2015-Aug-30 07:33N 37°18' E 011°45'8 8.0
2015-Aug-30 06:33N 37°16' E 011°55'8 7.8
2015-Aug-30 05:30N 37°13' E 012°05'8 8.4
2015-Aug-30 04:31N 37°10' E 012°15'8 8.3
2015-Aug-30 03:33N 37°06' E 012°23'24 8.1
2015-Aug-30 00:33N 36°55' E 012°50'8 7.8
2015-Aug-29 23:33N 36°51' E 012°59'8 7.6
2015-Aug-29 22:28N 36°47' E 013°08'15 7.3
2015-Aug-29 20:21N 36°40' E 013°25'38 7.8
2015-Aug-29 15:30N 36°22' E 014°06'8 8.4
2015-Aug-29 14:33N 36°19' E 014°15'8 8.6
2015-Aug-29 13:33N 36°15' E 014°25'9 8.7
2015-Aug-29 12:33N 36°11' E 014°34'7 7.2
2015-Aug-29 11:33N 36°06' E 014°41'8 8.0
2015-Aug-29 10:33N 35°58' E 014°39'9 7.3
2015-Aug-29 09:22N 35°50' E 014°36'0 0.1
2015-Aug-29 06:08N 35°50' E 014°36'0 0.0
2015-Aug-29 04:32N 35°50' E 014°36'0 0.0
2015-Aug-29 03:32N 35°50' E 014°36'0 0.0
2015-Aug-29 02:20N 35°50' E 014°36'0 0.0
2015-Aug-29 00:26N 35°50' E 014°36'0 0.0
2015-Aug-28 21:14N 35°50' E 014°36'0 0.0
2015-Aug-28 19:32N 35°50' E 014°36'0 0.0
2015-Aug-28 18:29N 35°50' E 014°36'0 0.1
2015-Aug-28 17:26N 35°50' E 014°36'0 0.0
2015-Aug-28 16:32N 35°50' E 014°36'0 0.0
2015-Aug-28 15:32N 35°50' E 014°36'0 0.0
2015-Aug-28 14:32N 35°50' E 014°36'0 0.0
2015-Aug-28 12:32N 35°50' E 014°36'0 0.0
2015-Aug-28 11:29N 35°50' E 014°36'0 0.0
2015-Aug-28 10:32N 35°50' E 014°36'0 0.0
2015-Aug-28 09:26N 35°50' E 014°36'0 0.0
2015-Aug-28 08:26N 35°50' E 014°36'0 0.0
2015-Aug-28 07:32N 35°50' E 014°36'0 0.0
2015-Aug-28 06:32N 35°50' E 014°36'0 0.0
2015-Aug-28 05:26N 35°50' E 014°36'0 0.0
2015-Aug-28 04:26N 35°50' E 014°36'0 0.0
2015-Aug-28 03:14N 35°50' E 014°36'0 0.0
2015-Aug-28 02:32N 35°50' E 014°36'0 0.0
2015-Aug-28 01:32N 35°50' E 014°36'0 0.0
2015-Aug-28 00:32N 35°50' E 014°36'0 0.0
2015-Aug-27 20:29N 35°50' E 014°36'0 0.0
2015-Aug-27 18:17N 35°50' E 014°36'0 0.0
2015-Aug-27 15:26N 35°50' E 014°36'0 0.0
2015-Aug-27 14:29N 35°50' E 014°36'0 0.0
2015-Aug-27 13:32N 35°50' E 014°36'0 0.0
2015-Aug-27 12:23N 35°50' E 014°36'0 0.0
2015-Aug-27 11:32N 35°50' E 014°36'0 0.0
2015-Aug-27 10:32N 35°50' E 014°36'0 0.0
2015-Aug-27 09:32N 35°50' E 014°36'0 0.0
2015-Aug-27 08:26N 35°50' E 014°36'0 0.0
2015-Aug-27 07:32N 35°50' E 014°36'0 0.0
2015-Aug-27 06:32N 35°50' E 014°36'0 0.0
2015-Aug-27 05:32N 35°50' E 014°36'0 0.0
2015-Aug-27 04:14N 35°50' E 014°36'0 0.0
2015-Aug-27 03:32N 35°50' E 014°36'0 0.0
2015-Aug-27 02:17N 35°50' E 014°36'0 0.0
2015-Aug-27 01:32N 35°50' E 014°36'0 0.0
2015-Aug-27 00:29N 35°50' E 014°36'0 0.0
2015-Aug-26 23:26N 35°50' E 014°36'0 0.0
2015-Aug-26 22:32N 35°50' E 014°36'0 0.0
2015-Aug-26 20:08N 35°50' E 014°36'0 0.0
2015-Aug-26 19:32N 35°50' E 014°36'0 0.0
2015-Aug-26 18:32N 35°50' E 014°36'0 0.0
2015-Aug-26 17:32N 35°50' E 014°36'0 0.0
2015-Aug-26 16:32N 35°50' E 014°36'0 0.1
2015-Aug-26 15:23N 35°50' E 014°36'3 3.1
2015-Aug-26 14:34N 35°52' E 014°37'8 7.6
2015-Aug-26 13:33N 35°60' E 014°39'8 7.9
2015-Aug-26 12:34N 36°07' E 014°41'8 7.7
2015-Aug-26 11:33N 36°14' E 014°36'7 7.0
2015-Aug-26 10:33N 36°17' E 014°28'8 7.8
2015-Aug-26 09:33N 36°19' E 014°19'8 7.5
2015-Aug-26 08:33N 36°23' E 014°11'8 7.8
2015-Aug-26 07:33N 36°28' E 014°04'5 4.9
2015-Aug-26 06:34N 36°31' E 013°59'0 0.4
2015-Aug-26 05:34N 36°31' E 013°59'0 0.4
2015-Aug-26 04:33N 36°32' E 013°59'0 0.3
2015-Aug-26 03:34N 36°32' E 013°58'0 0.4
2015-Aug-26 02:33N 36°32' E 013°58'0 0.3
2015-Aug-26 01:33N 36°33' E 013°58'0 0.4
2015-Aug-26 00:33N 36°33' E 013°58'0 0.4
2015-Aug-25 23:34N 36°33' E 013°57'0 0.4
2015-Aug-25 22:32N 36°34' E 013°57'0 0.5
2015-Aug-25 21:33N 36°34' E 013°57'0 0.4
2015-Aug-25 20:33N 36°34' E 013°57'0 0.4
2015-Aug-25 19:34N 36°35' E 013°56'0 0.4
2015-Aug-25 18:34N 36°35' E 013°56'0 0.5
2015-Aug-25 17:34N 36°36' E 013°56'1 0.8
2015-Aug-25 16:30N 36°36' E 013°56'0 0.2
2015-Aug-25 15:33N 36°37' E 013°56'0 0.3
2015-Aug-25 14:33N 36°37' E 013°56'0 0.2
2015-Aug-25 13:33N 36°37' E 013°56'0 0.1
2015-Aug-25 12:33N 36°37' E 013°56'0 0.1
2015-Aug-25 11:33N 36°37' E 013°56'0 0.1
2015-Aug-25 10:33N 36°37' E 013°56'0 0.1
2015-Aug-25 09:33N 36°37' E 013°56'0 0.4
2015-Aug-25 08:34N 36°37' E 013°56'0 0.1
2015-Aug-25 07:33N 36°37' E 013°56'0 0.1
2015-Aug-25 06:33N 36°37' E 013°56'0 0.2
2015-Aug-25 05:34N 36°37' E 013°56'0 0.2
2015-Aug-25 04:34N 36°37' E 013°56'0 0.1
2015-Aug-25 03:33N 36°37' E 013°56'1 1.5
2015-Aug-25 02:33N 36°37' E 013°58'7 7.1
2015-Aug-25 01:33N 36°35' E 014°06'7 7.3
2015-Aug-25 00:34N 36°32' E 014°14'6 6.1
2015-Aug-24 23:34N 36°30' E 014°21'8 7.7
2015-Aug-24 22:34N 36°27' E 014°30'8 7.7
2015-Aug-24 21:33N 36°27' E 014°40'8 7.5
2015-Aug-24 20:28N 36°27' E 014°50'7 7.8
2015-Aug-24 19:33N 36°26' E 014°59'8 7.6
2015-Aug-24 18:30N 36°27' E 015°09'7 7.8
2015-Aug-24 17:34N 36°26' E 015°18'9 7.5
2015-Aug-24 16:21N 36°26' E 015°29'8 7.7
2015-Aug-24 15:18N 36°26' E 015°39'6 7.2
2015-Aug-24 14:29N 36°26' E 015°46'2 0.6
2015-Aug-24 10:30N 36°26' E 015°49'0 0.2
2015-Aug-24 09:29N 36°26' E 015°49'5 5.6
2015-Aug-24 08:32N 36°26' E 015°56'  

Dump ship's entire track history